Página principal
METAR-TAF:

METAR-TAF

Aeroportos :

Beirute, Líbano

latitude: 33-49N, longitude: 035-29E, altura: 29 m

Observação actual do tempo

O boletim foi feito há 55 minutos, às 13:00 UTC
Vento 11 kt de nordeste
Temperatura 28°C
Humidade 42%
Pressão 1015 hPa
Visibilidade: 5000 m
Nuvens fragmentadasa uma altura de 8000 ft
bruma

METAR: OLBA 221300Z 04011KT 5000 HZ BKN080 28/14 Q1015 NOSIG

Hora: 16:55 (13:55 UTC)

Previsão

O boletim foi feito há 3 horas e 55 minutos, às 10:00 UTC
Previsão válida de 22 às 12 UTC a 23 às 18 UTC
Vento 10 kt de norte com rajadas de 20 kt
Visibilidade: 5000 m
Nuvens fragmentadasa uma altura de 12000 ft
bruma
Tornando-se
de 22 às 20 UTC a 22 às 22 UTC
Vento 15 kt de este
Tornando-se
de 23 às 08 UTC a 23 às 10 UTC
Vento 10 kt de norte com rajadas de 20 kt

TAF: OLBA 221000Z 2212/2318 36010G20KT 5000 HZ BKN120 BECMG 2220/2222 09015KT BECMG 2308/2310 36010G20KT

Observações e previsões do tempo de mais de 4000 aeroportos (mensagens METAR e TAF).

As estações disponíveis são os pontos amarelos e vermelhos sobre o mapa.

Mova o rato sobre o mapa para ver o nome da estação.

Depois clique no ponto para visualizar as observações e previsões meteorológicas.

Para alterar o mapa : clique nos botões verdes com uma cruz preta para aumentar o zoom; no botão verde com uma pitada de zoom; ou nas setas verdes para mapas adjacentes.


METAR-TAF: